Time;durP1;ratioP1;P1;durP2;ratioP2;P2;SDS_P1;SDS_P2;PMS_P1;PMS_P2;Temp;Humidity;BMP_temperature;BMP_pressure;BME280_temperature;BME280_humidity;BME280_pressure;Samples;Min_cycle;Max_cycle;Signal;HPM_P1;HPM_P2
2023/05/17 00:02:19;;;;;;;32.08;30.35;;;;;;;16.05;100.00;100571.78;6181388;23;20427;-90
2023/05/17 00:21:31;;;;;;;37.83;35.60;;;;;;;15.98;100.00;100589.88;6142141;23;20025;-89
2023/05/17 00:33:38;;;;;;;39.22;37.15;;;;;;;15.92;100.00;100601.59;6185874;23;20042;-88
2023/05/17 00:45:57;;;;;;;35.10;33.20;;;;;;;15.67;100.00;100572.47;6235150;23;20430;-89
2023/05/17 01:21:47;;;;;;;35.67;33.45;;;;;;;15.74;100.00;100618.69;5949822;24;20027;-90
2023/05/17 01:30:51;;;;;;;43.63;41.20;;;;;;;15.35;100.00;100651.44;6239745;23;20055;-90
2023/05/17 01:50:21;;;;;;;51.75;48.55;;;;;;;15.08;100.00;100578.97;6093442;23;20027;-89
2023/05/17 01:59:50;;;;;;;;;;;;;;;;;;;;;
2023/05/17 02:15:15;;;;;;;54.05;50.35;;;;;;;14.44;100.00;100535.44;6051996;23;20097;-90
2023/05/17 02:18:36;;;;;;;52.47;48.75;;;;;;;14.44;100.00;100528.22;6093698;23;20025;-90
2023/05/17 02:21:43;;;;;;;51.08;47.38;;;;;;;14.32;100.00;100522.09;6093170;23;20018;-90
2023/05/17 02:34:01;;;;;;;55.80;52.42;;;;;;;14.46;100.00;100533.31;5992347;23;20128;-91
2023/05/17 02:40:44;;;;;;;51.10;46.80;;;;;;;13.95;100.00;100582.97;6080253;23;20026;-90
2023/05/17 02:56:27;;;;;;;54.78;49.20;;;;;;;13.65;100.00;100609.72;6086050;23;20421;-90
2023/05/17 03:09:09;;;;;;;56.75;51.05;;;;;;;14.00;100.00;100580.41;6151419;23;20611;-90
2023/05/17 03:36:47;;;;;;;123.97;114.38;;;;;;;13.82;100.00;100604.53;6181676;23;20039;-89
2023/05/17 03:43:13;;;;;;;81.95;74.20;;;;;;;13.83;100.00;100582.13;5953078;23;20031;-90
2023/05/17 03:59:25;;;;;;;117.65;108.93;;;;;;;14.29;100.00;100588.53;5979373;23;20028;-90
2023/05/17 04:12:04;;;;;;;100.53;92.63;;;;;;;14.33;100.00;100619.06;6003817;23;20038;-90
2023/05/17 04:15:04;;;;;;;93.22;85.88;;;;;;;14.39;100.00;100618.94;6004772;23;20153;-90
2023/05/17 04:30:29;;;;;;;78.82;71.80;;;;;;;14.38;100.00;100611.19;6175976;23;20029;-90
2023/05/17 04:37:10;;;;;;;78.50;71.90;;;;;;;14.49;100.00;100610.34;6197517;23;20025;-90
2023/05/17 04:40:05;;;;;;;83.72;76.82;;;;;;;14.44;100.00;100629.75;6212789;23;20046;-90
2023/05/17 04:43:38;;;;;;;73.03;66.97;;;;;;;14.60;100.00;100633.59;6211865;23;20013;-89
2023/05/17 04:46:31;;;;;;;88.25;80.97;;;;;;;14.47;100.00;100639.16;6071846;23;20033;-91
2023/05/17 05:15:43;;;;;;;96.53;89.20;;;;;;;14.96;100.00;100604.94;6157561;23;20090;-89
2023/05/17 05:31:12;;;;;;;101.05;92.30;;;;;;;15.64;100.00;100653.28;6202004;23;20047;-90
2023/05/17 05:34:33;;;;;;;;;;;;;;;;;;;;;
2023/05/17 05:46:27;;;;;;;103.88;94.88;;;;;;;15.72;100.00;100659.09;6209162;23;20024;-89
2023/05/17 05:48:59;;;;;;;119.28;109.95;;;;;;;15.66;100.00;100648.50;6213948;23;20045;-90
2023/05/17 05:52:04;;;;;;;116.90;107.10;;;;;;;15.73;100.00;100655.38;6213585;23;20476;-90
2023/05/17 06:04:38;;;;;;;131.90;121.32;;;;;;;15.92;100.00;100679.25;6197364;23;20064;-89
2023/05/17 06:21:28;;;;;;;115.03;105.53;;;;;;;16.11;100.00;100680.63;6034612;23;20051;-91
2023/05/17 06:24:51;;;;;;;100.63;92.20;;;;;;;16.18;100.00;100686.63;6081571;23;20093;-89
2023/05/17 06:34:22;;;;;;;128.20;117.47;;;;;;;16.42;100.00;100681.91;6120966;23;20045;-91
2023/05/17 06:37:04;;;;;;;135.45;124.45;;;;;;;16.41;100.00;100684.84;6034947;23;20034;-90
2023/05/17 06:46:36;;;;;;;121.07;111.95;;;;;;;16.39;100.00;100697.69;6021137;23;20051;-89
2023/05/17 07:02:41;;;;;;;80.95;74.05;;;;;;;16.28;100.00;100661.88;6090536;23;20409;-89
2023/05/17 07:34:40;;;;;;;123.22;113.53;;;;;;;16.21;100.00;100714.81;6179026;23;20037;-90
2023/05/17 07:57:46;;;;;;;119.30;107.85;;;;;;;16.84;100.00;100694.88;5998544;23;20473;-89
2023/05/17 08:01:16;;;;;;;;;;;;;;;;;;;;;
2023/05/17 08:08:03;;;;;;;141.73;121.28;;;;;;;17.33;100.00;100675.34;6032598;23;20028;-90
2023/05/17 08:20:49;;;;;;;119.80;108.78;;;;;;;17.48;100.00;100680.88;6090717;23;20024;-91
2023/05/17 08:33:39;;;;;;;113.47;103.07;;;;;;;17.39;100.00;100693.94;6071972;23;20029;-90
2023/05/17 08:36:41;;;;;;;163.23;150.10;;;;;;;17.52;100.00;100683.88;6182082;23;20025;-90
2023/05/17 09:09:20;;;;;;;114.43;105.13;;;;;;;17.69;100.00;100689.94;6003863;23;20126;-91
2023/05/17 09:15:52;;;;;;;120.18;110.07;;;;;;;17.61;100.00;100699.28;6004238;23;20103;-89
2023/05/17 09:57:52;;;;;;;132.15;121.60;;;;;;;17.16;100.00;100734.47;5903108;24;20033;-90
2023/05/17 10:04:10;;;;;;;133.18;121.75;;;;;;;17.20;100.00;100730.22;6058956;23;20047;-89
2023/05/17 10:18:33;;;;;;;96.43;88.20;;;;;;;17.99;100.00;100718.22;6244163;22;20403;-90
2023/05/17 10:27:27;;;;;;;96.20;87.35;;;;;;;17.64;100.00;100716.78;5044175;27;20396;-82
2023/05/17 10:29:55;;;;;;;113.35;103.75;;;;;;;17.80;100.00;100726.63;5022171;28;20049;-81
2023/05/17 10:32:25;;;;;;;129.68;118.82;;;;;;;17.68;100.00;100717.09;5044374;28;20069;-81
2023/05/17 10:34:54;;;;;;;135.10;123.72;;;;;;;17.75;100.00;100715.00;5039363;28;20045;-74
2023/05/17 10:37:23;;;;;;;131.23;118.32;;;;;;;17.63;100.00;100720.50;5029653;28;20507;-73
2023/05/17 10:39:51;;;;;;;106.28;96.97;;;;;;;18.06;100.00;100718.81;5022924;28;20413;-74
2023/05/17 10:42:19;;;;;;;123.75;112.93;;;;;;;17.80;100.00;100717.78;5013778;28;20054;-76
2023/05/17 10:47:17;;;;;;;132.50;120.82;;;;;;;17.91;100.00;100715.97;5041099;28;20119;-76
2023/05/17 10:49:46;;;;;;;140.68;128.13;;;;;;;17.83;100.00;100719.94;5024425;28;20064;-76
2023/05/17 10:52:19;;;;;;;136.25;124.47;;;;;;;17.71;100.00;100720.06;5030237;28;20049;-76
2023/05/17 10:54:48;;;;;;;;;;;;;;;17.75;100.00;100709.63;5031348;28;20535;-74
2023/05/17 10:57:32;;;;;;;126.30;114.93;;;;;;;17.69;100.00;100711.44;5033433;28;19921;-77
2023/05/17 11:00:02;;;;;;;122.93;112.00;;;;;;;17.80;100.00;100712.41;4311607;28;9999944;-77
2023/05/17 11:02:32;;;;;;;129.63;117.90;;;;;;;17.84;100.00;100695.50;5034845;28;20048;-74
2023/05/17 11:04:59;;;;;;;131.40;119.90;;;;;;;17.61;100.00;100701.16;5027057;28;20048;-75
2023/05/17 11:07:28;;;;;;;118.35;108.38;;;;;;;17.68;100.00;100696.41;5039812;28;20456;-75
2023/05/17 11:10:04;;;;;;;121.20;110.47;;;;;;;17.92;100.00;100691.56;5057171;28;21245;-75
2023/05/17 11:12:36;;;;;;;118.53;108.55;;;;;;;17.95;100.00;100698.31;5059268;28;20060;-76
2023/05/17 11:15:07;;;;;;;123.17;113.37;;;;;;;17.92;100.00;100713.06;5057278;28;20474;-74
2023/05/17 11:17:48;;;;;;;116.80;107.53;;;;;;;17.91;100.00;100702.53;5051886;28;20300;-75
2023/05/17 11:20:33;;;;;;;106.80;98.10;;;;;;;17.67;100.00;100710.91;5049863;28;20400;-74
2023/05/17 11:23:04;;;;;;;108.38;100.15;;;;;;;17.77;100.00;100697.59;5050478;28;20553;-75
2023/05/17 11:25:34;;;;;;;107.47;98.85;;;;;;;17.55;100.00;100720.94;5055546;28;20052;-75
2023/05/17 11:28:07;;;;;;;109.78;100.97;;;;;;;17.18;100.00;100716.22;5050179;28;20550;-75
2023/05/17 11:30:41;;;;;;;115.45;106.55;;;;;;;17.40;100.00;100717.06;5056836;28;20061;-75
2023/05/17 11:33:09;;;;;;;114.43;105.20;;;;;;;17.29;100.00;100715.31;5055931;28;20064;-76
2023/05/17 11:35:38;;;;;;;116.65;107.05;;;;;;;17.55;100.00;100715.56;5052819;28;20439;-75
2023/05/17 11:38:17;;;;;;;112.18;103.38;;;;;;;17.37;100.00;100712.19;5039556;28;20053;-75
2023/05/17 11:40:46;;;;;;;118.05;108.40;;;;;;;17.37;100.00;100708.69;5039888;28;20131;-75
2023/05/17 11:43:15;;;;;;;115.85;106.47;;;;;;;17.32;100.00;100705.94;5040044;28;20046;-75
2023/05/17 11:45:49;;;;;;;107.32;98.85;;;;;;;17.58;100.00;100707.03;5041693;28;20084;-75
2023/05/17 11:48:19;;;;;;;117.15;108.40;;;;;;;17.30;100.00;100700.81;5042156;28;20132;-75
2023/05/17 11:50:47;;;;;;;113.80;104.03;;;;;;;17.51;100.00;100701.03;5043199;28;20432;-75
2023/05/17 11:53:14;;;;;;;107.30;98.35;;;;;;;17.58;100.00;100707.03;5043671;28;20063;-75
2023/05/17 11:55:43;;;;;;;121.80;110.88;;;;;;;17.90;100.00;100693.69;5043031;28;20344;-74
2023/05/17 11:58:11;;;;;;;118.75;109.07;;;;;;;17.78;100.00;100682.28;5042962;28;20064;-75
2023/05/17 12:00:39;;;;;;;162.43;147.18;;;;;;;18.12;100.00;100682.03;5042255;28;20048;-76
2023/05/17 12:03:18;;;;;;;107.75;99.85;;;;;;;18.12;100.00;100673.97;5044604;28;20049;-75
2023/05/17 12:05:46;;;;;;;88.70;81.80;;;;;;;18.10;100.00;100668.06;5042586;28;20081;-75
2023/05/17 12:08:13;;;;;;;61.95;57.10;;;;;;;17.83;100.00;100658.16;5044110;28;20049;-75
2023/05/17 12:10:45;;;;;;;54.55;50.35;;;;;;;17.82;100.00;100649.28;5045096;28;20565;-75
2023/05/17 12:13:12;;;;;;;56.72;52.65;;;;;;;17.89;100.00;100630.28;5044247;28;20056;-75
2023/05/17 12:15:41;;;;;;;55.47;51.13;;;;;;;17.80;100.00;100635.31;5041114;28;20638;-75
2023/05/17 12:18:08;;;;;;;65.43;60.42;;;;;;;18.03;100.00;100627.94;5042809;28;20473;-75
2023/05/17 12:20:37;;;;;;;61.08;56.03;;;;;;;18.36;100.00;100634.88;5041569;28;20486;-75
2023/05/17 12:23:04;;;;;;;52.00;47.90;;;;;;;18.11;100.00;100626.66;5042070;28;20063;-75
2023/05/17 12:25:31;;;;;;;52.33;48.15;;;;;;;18.31;100.00;100624.13;5045087;28;20041;-75
2023/05/17 12:28:17;;;;;;;57.58;52.50;;;;;;;18.36;100.00;100629.50;5046338;28;20602;-75
2023/05/17 12:30:44;;;;;;;43.35;39.75;;;;;;;18.03;100.00;100614.50;5046465;28;20052;-75
2023/05/17 12:33:11;;;;;;;42.05;38.45;;;;;;;17.98;100.00;100622.56;5041984;28;20055;-75
2023/05/17 12:35:40;;;;;;;38.95;35.78;;;;;;;17.99;100.00;100618.78;5041887;28;20048;-75
2023/05/17 12:38:07;;;;;;;38.13;35.08;;;;;;;17.83;100.00;100617.88;5044975;28;20052;-76
2023/05/17 12:40:34;;;;;;;39.45;36.17;;;;;;;17.88;100.00;100622.44;5043180;28;20504;-75
2023/05/17 12:43:04;;;;;;;40.15;37.15;;;;;;;18.05;100.00;100628.50;5047341;28;20053;-75
2023/05/17 12:45:31;;;;;;;36.95;34.05;;;;;;;18.01;100.00;100624.72;5043913;28;20077;-75
2023/05/17 12:48:00;;;;;;;36.50;33.42;;;;;;;17.90;100.00;100621.13;5045759;28;20049;-75
2023/05/17 12:50:30;;;;;;;41.20;37.80;;;;;;;18.21;100.00;100607.91;5045800;28;20496;-75
2023/05/17 12:52:58;;;;;;;37.28;34.28;;;;;;;18.22;100.00;100613.03;5047456;28;20495;-74
2023/05/17 12:55:25;;;;;;;40.85;37.35;;;;;;;18.54;100.00;100614.81;5045530;28;20049;-74
2023/05/17 12:57:54;;;;;;;42.83;39.42;;;;;;;18.61;100.00;100611.91;5040988;28;20451;-75
2023/05/17 13:00:21;;;;;;;37.03;34.00;;;;;;;18.45;100.00;100609.13;5042378;28;20178;-74
2023/05/17 13:02:48;;;;;;;33.22;30.73;;;;;;;18.38;100.00;100615.81;5042943;28;20049;-74
2023/05/17 13:05:17;;;;;;;29.05;27.10;;;;;;;18.33;100.00;100616.59;5045806;28;20433;-74
2023/05/17 13:07:44;;;;;;;27.55;25.45;;;;;;;18.43;100.00;100618.56;5043472;28;20041;-74
2023/05/17 13:10:24;;;;;;;27.83;25.77;;;;;;;18.21;100.00;100614.09;5042155;28;20060;-76
2023/05/17 13:12:56;;;;;;;29.90;27.65;;;;;;;18.28;100.00;100605.81;5041597;28;20413;-74
2023/05/17 13:15:30;;;;;;;30.77;28.50;;;;;;;18.17;100.00;100604.94;5050832;28;20053;-74
2023/05/17 13:17:57;;;;;;;30.98;28.38;;;;;;;18.09;100.00;100602.72;5044188;28;20436;-76
2023/05/17 13:20:24;;;;;;;54.97;50.97;;;;;;;18.28;100.00;100619.28;5045735;28;20519;-76
2023/05/17 13:22:51;;;;;;;49.72;45.80;;;;;;;18.38;100.00;100611.25;5043292;28;20056;-76
2023/05/17 13:25:18;;;;;;;51.65;48.10;;;;;;;18.33;100.00;100610.41;5042770;28;20048;-76
2023/05/17 13:27:48;;;;;;;49.53;45.50;;;;;;;18.32;100.00;100617.66;5041693;28;20432;-76
2023/05/17 13:30:15;;;;;;;42.20;39.08;;;;;;;18.21;100.00;100619.47;5042513;28;20057;-76
2023/05/17 13:32:42;;;;;;;51.60;47.75;;;;;;;18.23;100.00;100611.97;5042504;28;20549;-76
2023/05/17 13:35:10;;;;;;;54.00;50.35;;;;;;;18.26;100.00;100608.75;5041300;28;20049;-76
2023/05/17 13:37:36;;;;;;;52.00;48.35;;;;;;;18.20;100.00;100609.78;5045442;28;20076;-76
2023/05/17 13:40:04;;;;;;;55.42;51.53;;;;;;;18.66;100.00;100609.25;5044433;28;20049;-76
2023/05/17 13:42:31;;;;;;;57.15;52.60;;;;;;;18.57;100.00;100614.31;5044916;28;20484;-76
2023/05/17 13:45:01;;;;;;;51.38;47.22;;;;;;;18.36;100.00;100613.38;5043294;28;20045;-76
2023/05/17 13:47:30;;;;;;;61.90;57.10;;;;;;;18.56;100.00;100609.19;5042634;28;20052;-76
2023/05/17 13:49:57;;;;;;;59.92;55.50;;;;;;;18.66;100.00;100612.72;5045801;28;20057;-75
2023/05/17 13:52:24;;;;;;;51.00;47.03;;;;;;;18.29;100.00;100613.63;5046474;28;20435;-77
2023/05/17 13:54:51;;;;;;;59.10;54.80;;;;;;;18.45;100.00;100605.63;5048007;28;20083;-76
2023/05/17 13:57:18;;;;;;;59.10;54.65;;;;;;;18.66;100.00;100607.34;5044758;28;20063;-76
2023/05/17 13:59:45;;;;;;;65.97;61.50;;;;;;;18.60;100.00;100604.91;5045618;28;20041;-76
2023/05/17 14:02:13;;;;;;;59.10;55.00;;;;;;;18.39;100.00;100606.69;5050210;28;20099;-76
2023/05/17 14:04:40;;;;;;;66.93;61.35;;;;;;;18.63;100.00;100610.56;5047474;28;20053;-77
2023/05/17 14:07:07;;;;;;;71.10;66.00;;;;;;;18.78;100.00;100604.47;5045902;28;20503;-76
2023/05/17 14:09:35;;;;;;;67.53;62.60;;;;;;;18.79;100.00;100607.97;5045184;28;20053;-77
2023/05/17 14:12:02;;;;;;;64.75;60.28;;;;;;;18.76;100.00;100601.25;5047743;28;20067;-76
2023/05/17 14:14:30;;;;;;;52.95;49.08;;;;;;;18.79;100.00;100599.91;5044914;28;20053;-76
2023/05/17 14:16:57;;;;;;;58.08;53.63;;;;;;;18.81;100.00;100601.25;5047798;28;20075;-74
2023/05/17 14:19:25;;;;;;;49.22;45.17;;;;;;;18.60;100.00;100602.22;5044696;28;20044;-77
2023/05/17 14:21:52;;;;;;;54.35;50.05;;;;;;;18.26;100.00;100600.69;5044557;28;20431;-74
2023/05/17 14:24:19;;;;;;;63.90;58.65;;;;;;;18.41;100.00;100591.91;5046803;28;20059;-75
2023/05/17 14:26:46;;;;;;;77.10;70.80;;;;;;;18.55;100.00;100597.63;5042332;28;20045;-74
2023/05/17 14:29:13;;;;;;;87.65;81.25;;;;;;;18.62;100.00;100600.09;5047245;28;20519;-76
2023/05/17 14:31:40;;;;;;;93.70;87.00;;;;;;;18.67;100.00;100608.16;5047009;28;20053;-76
2023/05/17 14:34:07;;;;;;;93.82;86.40;;;;;;;18.52;100.00;100600.84;5048486;28;20049;-77
2023/05/17 14:36:37;;;;;;;95.72;88.50;;;;;;;18.46;100.00;100616.16;5039372;28;20041;-76
2023/05/17 14:39:04;;;;;;;90.30;82.93;;;;;;;18.18;100.00;100603.06;5037794;28;20063;-76
2023/05/17 14:41:31;;;;;;;95.03;86.22;;;;;;;18.44;100.00;100604.84;5038058;28;20049;-76
2023/05/17 14:43:58;;;;;;;105.45;96.85;;;;;;;18.33;100.00;100605.84;5029419;28;20444;-76
2023/05/17 14:46:25;;;;;;;108.72;99.13;;;;;;;18.33;100.00;100605.84;5038599;28;20337;-76
2023/05/17 14:48:52;;;;;;;121.72;110.07;;;;;;;18.47;100.00;100598.94;5037533;28;20707;-77
2023/05/17 14:51:18;;;;;;;130.82;120.68;;;;;;;18.41;100.00;100591.09;5034967;28;20508;-77
2023/05/17 14:53:47;;;;;;;136.35;125.75;;;;;;;18.44;100.00;100594.06;5038468;28;20057;-76
2023/05/17 14:56:14;;;;;;;149.43;137.45;;;;;;;18.31;100.00;100599.94;5037078;28;20504;-76
2023/05/17 14:58:41;;;;;;;177.55;164.02;;;;;;;18.18;100.00;100598.47;5037078;28;20147;-77
2023/05/17 15:01:08;;;;;;;209.70;194.73;;;;;;;17.89;100.00;100581.91;5039798;28;20151;-77
2023/05/17 15:03:35;;;;;;;191.00;177.10;;;;;;;17.83;100.00;100580.25;5046244;28;20056;-77
2023/05/17 15:06:02;;;;;;;129.15;118.57;;;;;;;17.85;100.00;100576.25;5042481;28;20061;-76
2023/05/17 15:08:29;;;;;;;134.02;123.72;;;;;;;17.79;100.00;100571.91;5044631;28;20044;-77
2023/05/17 15:10:58;;;;;;;154.13;140.60;;;;;;;17.80;100.00;100572.72;5045207;28;20103;-77
2023/05/17 15:13:25;;;;;;;150.73;137.40;;;;;;;17.84;100.00;100563.88;5047500;28;21172;-77
2023/05/17 15:15:52;;;;;;;151.70;139.23;;;;;;;18.04;100.00;100563.22;5042701;28;20049;-77
2023/05/17 15:18:19;;;;;;;143.75;131.88;;;;;;;17.91;100.00;100566.31;5046541;28;20052;-76
2023/05/17 15:20:46;;;;;;;142.30;130.80;;;;;;;17.90;100.00;100563.91;5051062;28;20041;-77
2023/05/17 15:23:13;;;;;;;141.80;130.60;;;;;;;18.21;100.00;100562.22;5048516;28;20053;-76
2023/05/17 15:25:40;;;;;;;144.13;132.45;;;;;;;17.97;100.00;100559.94;5051044;28;20052;-77
2023/05/17 15:28:08;;;;;;;130.02;118.95;;;;;;;18.39;100.00;100555.59;5045859;28;20060;-77
2023/05/17 15:30:35;;;;;;;161.70;147.80;;;;;;;18.52;100.00;100555.13;5048616;28;20444;-76
2023/05/17 15:33:02;;;;;;;154.18;140.85;;;;;;;18.12;100.00;100567.28;5048025;28;20055;-76
2023/05/17 15:35:29;;;;;;;134.38;123.47;;;;;;;18.06;100.00;100563.75;5046465;28;20053;-77
2023/05/17 15:37:57;;;;;;;137.68;126.97;;;;;;;18.07;100.00;100564.56;5043962;28;20428;-76
2023/05/17 15:40:24;;;;;;;130.25;118.88;;;;;;;18.18;100.00;100565.44;5046408;28;20064;-77
2023/05/17 15:42:51;;;;;;;141.95;129.63;;;;;;;18.20;100.00;100560.59;5044125;28;20123;-76
2023/05/17 15:45:20;;;;;;;134.85;123.00;;;;;;;18.07;100.00;100561.88;5037633;28;20126;-77
2023/05/17 15:47:47;;;;;;;127.20;116.55;;;;;;;18.02;100.00;100569.91;5036703;28;20045;-77
2023/05/17 15:50:14;;;;;;;122.10;111.00;;;;;;;17.80;100.00;100575.41;5040697;28;20543;-76
2023/05/17 15:52:41;;;;;;;128.13;117.32;;;;;;;17.90;100.00;100574.66;5042460;28;20156;-77
2023/05/17 15:55:09;;;;;;;123.80;112.78;;;;;;;18.00;100.00;100577.41;5041766;28;20508;-77
2023/05/17 15:57:36;;;;;;;133.60;122.38;;;;;;;17.93;100.00;100583.00;5040983;28;20049;-77
2023/05/17 16:00:04;;;;;;;127.32;116.40;;;;;;;17.90;100.00;100594.28;5032505;28;20069;-77
2023/05/17 16:02:32;;;;;;;131.82;119.78;;;;;;;18.17;100.00;100590.69;5038943;28;20042;-77
2023/05/17 16:04:59;;;;;;;132.27;120.78;;;;;;;18.09;100.00;100586.59;5045723;28;20045;-77
2023/05/17 16:07:26;;;;;;;128.98;117.35;;;;;;;18.12;100.00;100587.97;5037965;28;20053;-76
2023/05/17 16:09:53;;;;;;;128.63;117.32;;;;;;;17.78;100.00;100580.22;5043636;28;20433;-76
2023/05/17 16:12:19;;;;;;;131.38;119.82;;;;;;;18.07;100.00;100588.75;5047726;28;20048;-76
2023/05/17 16:14:46;;;;;;;128.32;117.22;;;;;;;18.05;100.00;100583.63;5045275;28;20049;-76
2023/05/17 16:17:13;;;;;;;134.55;123.03;;;;;;;17.97;100.00;100594.03;5037615;28;20049;-77
2023/05/17 16:19:41;;;;;;;129.60;118.43;;;;;;;17.87;100.00;100592.09;5039987;28;20057;-77
2023/05/17 16:22:08;;;;;;;126.32;114.97;;;;;;;17.93;100.00;100591.06;5046124;28;20559;-77
2023/05/17 16:24:35;;;;;;;126.22;114.60;;;;;;;17.70;100.00;100592.22;5041415;28;20119;-76
2023/05/17 16:27:02;;;;;;;129.63;118.15;;;;;;;17.77;100.00;100590.16;5039354;28;20053;-77
2023/05/17 16:29:28;;;;;;;127.47;115.80;;;;;;;17.79;100.00;100593.41;5041701;28;20049;-77
2023/05/17 16:31:55;;;;;;;130.27;119.03;;;;;;;17.83;100.00;100599.88;5041660;28;20053;-77
2023/05/17 16:34:23;;;;;;;119.35;108.65;;;;;;;17.89;100.00;100605.28;5042633;28;20060;-76
2023/05/17 16:36:52;;;;;;;123.53;112.43;;;;;;;17.94;100.00;100600.72;5032115;28;20519;-77
2023/05/17 16:39:18;;;;;;;124.55;113.43;;;;;;;17.99;100.00;100602.66;5042423;28;20099;-77
2023/05/17 16:41:45;;;;;;;127.95;116.85;;;;;;;17.73;100.00;100615.03;5038903;28;20060;-77
2023/05/17 16:44:12;;;;;;;117.38;106.78;;;;;;;17.67;100.00;100613.38;5041494;28;20114;-77
2023/05/17 16:46:39;;;;;;;122.85;111.35;;;;;;;17.61;100.00;100613.34;5048086;28;20061;-77
2023/05/17 16:49:06;;;;;;;129.10;117.97;;;;;;;17.48;100.00;100607.56;5049060;28;20488;-77
2023/05/17 16:51:33;;;;;;;126.90;115.85;;;;;;;17.82;100.00;100611.69;5047346;28;20118;-77
2023/05/17 16:54:02;;;;;;;131.45;119.57;;;;;;;17.80;100.00;100615.69;5049462;28;20444;-77
2023/05/17 16:56:29;;;;;;;130.45;118.45;;;;;;;17.71;100.00;100619.88;5047115;28;20045;-77
2023/05/17 16:58:55;;;;;;;123.38;112.32;;;;;;;17.74;100.00;100622.06;5046615;28;20053;-77
2023/05/17 17:01:22;;;;;;;120.55;109.55;;;;;;;17.74;100.00;100624.75;5045220;28;20048;-77
2023/05/17 17:03:49;;;;;;;116.07;105.57;;;;;;;17.59;100.00;100628.09;5045944;28;20072;-77
2023/05/17 17:06:16;;;;;;;122.35;111.00;;;;;;;17.54;100.00;100626.16;5044225;28;20045;-77
2023/05/17 17:08:43;;;;;;;113.32;102.95;;;;;;;17.59;100.00;100633.47;5043789;28;20040;-76
2023/05/17 17:11:11;;;;;;;120.15;109.15;;;;;;;17.55;100.00;100638.53;5049089;28;20408;-77
2023/05/17 17:13:38;;;;;;;113.45;102.82;;;;;;;17.49;100.00;100639.56;5045952;28;20045;-77
2023/05/17 17:16:05;;;;;;;117.53;106.65;;;;;;;17.28;100.00;100632.38;5045640;28;20431;-76
2023/05/17 17:18:32;;;;;;;125.93;113.40;;;;;;;17.42;100.00;100640.81;5047245;28;20480;-76
2023/05/17 17:20:59;;;;;;;121.72;109.53;;;;;;;17.13;100.00;100631.13;5043995;28;20045;-77
2023/05/17 17:23:26;;;;;;;112.93;102.13;;;;;;;17.14;100.00;100631.94;5048444;28;20049;-77
2023/05/17 17:25:53;;;;;;;114.40;103.35;;;;;;;17.23;100.00;100633.09;5044671;28;20049;-77
2023/05/17 17:28:21;;;;;;;124.97;112.95;;;;;;;17.24;100.00;100629.34;5039281;28;20068;-77
2023/05/17 17:30:48;;;;;;;122.80;111.38;;;;;;;16.97;100.00;100632.00;5042021;28;20060;-77
2023/05/17 17:33:15;;;;;;;128.40;116.55;;;;;;;17.03;100.00;100635.53;5031851;28;20420;-77
2023/05/17 17:35:41;;;;;;;120.15;108.25;;;;;;;17.02;100.00;100642.78;5038949;28;20056;-76
2023/05/17 17:38:12;;;;;;;122.78;110.82;;;;;;;16.77;100.00;100642.50;5044468;28;20049;-77
2023/05/17 17:40:39;;;;;;;122.38;110.55;;;;;;;16.87;100.00;100656.81;5039324;28;20542;-77
2023/05/17 17:43:05;;;;;;;139.88;127.47;;;;;;;16.87;100.00;100658.69;5044018;28;20103;-77
2023/05/17 17:45:34;;;;;;;129.07;117.03;;;;;;;16.94;100.00;100668.19;5045833;28;20057;-76
2023/05/17 17:48:01;;;;;;;117.85;106.13;;;;;;;16.89;100.00;100672.69;5040413;28;20056;-76
2023/05/17 17:50:28;;;;;;;121.63;110.13;;;;;;;16.87;100.00;100670.25;5038234;28;20459;-76
2023/05/17 17:52:54;;;;;;;123.25;111.70;;;;;;;16.98;100.00;100679.25;5045332;28;20413;-77
2023/05/17 17:55:21;;;;;;;148.07;134.65;;;;;;;17.02;100.00;100683.03;5046510;28;20052;-77
2023/05/17 17:57:49;;;;;;;130.52;118.43;;;;;;;16.63;100.00;100683.03;5045351;28;20037;-77
2023/05/17 18:00:16;;;;;;;141.90;128.30;;;;;;;16.79;100.00;100678.72;5040847;28;20515;-76
2023/05/17 18:02:44;;;;;;;145.82;132.45;;;;;;;16.69;100.00;100668.63;5041640;28;20048;-76
2023/05/17 18:05:11;;;;;;;243.43;218.48;;;;;;;16.74;100.00;100670.59;5036152;28;20057;-76
2023/05/17 18:07:38;;;;;;;159.10;143.05;;;;;;;16.78;100.00;100693.19;5040015;28;20041;-76
2023/05/17 18:10:06;;;;;;;140.75;126.80;;;;;;;16.71;100.00;100696.00;5040210;28;20044;-77
2023/05/17 18:12:33;;;;;;;137.07;123.68;;;;;;;16.65;100.00;100691.66;5042539;28;20056;-77
2023/05/17 18:15:00;;;;;;;144.77;130.82;;;;;;;16.32;100.00;100695.16;5040146;28;20393;-77
2023/05/17 18:17:27;;;;;;;141.70;128.10;;;;;;;16.37;100.00;100683.69;5039468;28;20042;-77
2023/05/17 18:19:55;;;;;;;148.32;134.00;;;;;;;16.51;100.00;100689.56;5039317;28;20049;-76
2023/05/17 18:22:22;;;;;;;139.45;125.22;;;;;;;16.61;100.00;100690.53;5040430;28;20520;-77
2023/05/17 18:24:51;;;;;;;202.98;186.60;;;;;;;16.61;100.00;100695.03;5040731;28;20432;-77
2023/05/17 18:27:18;;;;;;;206.77;189.75;;;;;;;16.59;100.00;100692.63;5037348;28;20053;-76
2023/05/17 18:29:45;;;;;;;231.48;212.93;;;;;;;16.65;100.00;100697.00;5045171;28;20040;-77
2023/05/17 18:32:12;;;;;;;205.30;189.57;;;;;;;16.53;100.00;100700.84;5045547;28;20063;-76
2023/05/17 18:34:39;;;;;;;191.43;176.18;;;;;;;16.59;100.00;100702.53;5045728;28;20053;-77
2023/05/17 18:37:07;;;;;;;182.20;167.13;;;;;;;16.57;100.00;100699.28;5046064;28;20056;-77
2023/05/17 18:39:35;;;;;;;219.80;203.15;;;;;;;16.57;100.00;100704.66;5040087;28;20511;-77
2023/05/17 18:42:02;;;;;;;216.25;199.27;;;;;;;16.57;100.00;100702.78;5041094;28;20045;-77
2023/05/17 18:44:29;;;;;;;188.23;173.05;;;;;;;16.47;100.00;100706.13;5040410;28;20053;-77
2023/05/17 18:46:56;;;;;;;215.60;199.15;;;;;;;16.58;100.00;100703.59;5040540;28;20097;-77
2023/05/17 18:49:25;;;;;;;242.27;224.45;;;;;;;16.49;100.00;100706.69;5045132;28;20474;-77
2023/05/17 18:51:52;;;;;;;187.02;172.63;;;;;;;16.54;100.00;100714.00;5044745;28;20055;-77
2023/05/17 18:54:20;;;;;;;216.60;201.10;;;;;;;16.58;100.00;100712.47;5036501;28;20041;-76
2023/05/17 18:56:46;;;;;;;148.30;136.68;;;;;;;16.55;100.00;100706.75;5043689;28;20052;-76
2023/05/17 18:59:13;;;;;;;121.07;110.38;;;;;;;16.53;100.00;100709.69;5044892;28;20485;-77
2023/05/17 19:01:42;;;;;;;95.03;87.00;;;;;;;16.47;100.00;100716.84;5042952;28;20053;-77
2023/05/17 19:04:09;;;;;;;95.75;87.22;;;;;;;16.48;100.00;100715.78;5040531;28;20049;-76
2023/05/17 19:06:40;;;;;;;84.50;77.03;;;;;;;16.41;100.00;100714.34;5045868;28;20053;-77
2023/05/17 19:09:07;;;;;;;77.22;70.05;;;;;;;16.41;100.00;100708.97;5046142;28;20040;-77
2023/05/17 19:11:35;;;;;;;78.25;71.65;;;;;;;16.44;100.00;100714.66;5048381;28;20080;-77
2023/05/17 19:14:03;;;;;;;73.15;67.03;;;;;;;16.40;100.00;100713.53;5050537;28;20440;-76
2023/05/17 19:16:30;;;;;;;72.97;66.88;;;;;;;16.40;100.00;100715.38;5051471;28;20090;-76
2023/05/17 19:18:57;;;;;;;69.55;63.53;;;;;;;16.36;100.00;100715.06;5047255;28;20067;-76
2023/05/17 19:21:24;;;;;;;63.97;58.28;;;;;;;16.37;100.00;100714.03;5022768;28;20044;-75
2023/05/17 19:23:50;;;;;;;57.35;52.10;;;;;;;16.60;100.00;100709.53;5054750;28;20064;-75
2023/05/17 19:26:18;;;;;;;48.97;44.42;;;;;;;16.85;100.00;100706.41;5049316;28;20049;-76